This is the latest recevied weather packets stored in our database for station/object VK4SSH. If no packets are shown the sender has not sent any weather packets the latest 10 day(s).
| Time | Temp. | Humidity | Pressure | Rain* | Wind** | Luminosity | Snow |
|---|---|---|---|---|---|---|---|
| 1777691728 | 24.44° C | 72% | - | 0 mm | - | - | - |
| 1777691128 | 25° C | 72% | - | 0 mm | - | - | - |
| 1777690528 | 25° C | 70% | - | 0 mm | - | - | - |
| 1777689928 | 25° C | 70% | - | 0 mm | - | - | - |
| 1777689328 | 25° C | 70% | - | 0 mm | - | - | - |
| 1777688728 | 25° C | 69% | - | 0 mm | - | - | - |
| 1777688128 | 25° C | 72% | - | 0 mm | - | - | - |
| 1777687528 | 25° C | 71% | - | 0 mm | - | - | - |
| 1777686928 | 24.44° C | 73% | - | 0 mm | - | - | - |
| 1777686328 | 25° C | 72% | - | 0 mm | - | - | - |
| 1777685728 | 25.56° C | 69% | - | 0 mm | - | - | - |
| 1777685128 | 25.56° C | 69% | - | 0 mm | - | - | - |
| 1777684528 | 25° C | 70% | - | 0 mm | - | - | - |
| 1777683928 | 25° C | 70% | - | 0 mm | - | - | - |
| 1777683328 | 24.44° C | 73% | - | 0 mm | - | - | - |
| 1777682728 | 24.44° C | 72% | - | 0 mm | - | - | - |
| 1777682128 | 24.44° C | 74% | - | 0 mm | - | - | - |
| 1777681528 | 24.44° C | 73% | - | 0 mm | - | - | - |
| 1777680928 | 24.44° C | 77% | - | 0 mm | - | - | - |
| 1777680328 | 23.89° C | 79% | - | 0 mm | - | - | - |
| 1777679728 | 24.44° C | 77% | - | 0 mm | - | - | - |
| 1777679128 | 24.44° C | 78% | - | 0 mm | - | - | - |
| 1777678528 | 23.89° C | 81% | - | 0 mm | - | - | - |
| 1777677928 | 23.33° C | 82% | - | 0 mm | - | - | - |
| 1777677328 | 23.33° C | 86% | - | 0 mm | - | - | - |
* Rain latest hour (hover to see other rain measurements)
** Current wind speed in m/s (hover to see current wind gust speed)